createdAt,value
2018-06-04T00:00:22.951Z,17.70
2018-06-04T00:02:51.045Z,17.70
2018-06-04T00:05:19.114Z,17.70
2018-06-04T00:07:47.205Z,17.70
2018-06-04T00:10:15.279Z,17.70
2018-06-04T00:12:43.356Z,17.60
2018-06-04T00:15:11.487Z,17.60
2018-06-04T00:17:39.550Z,17.60
2018-06-04T00:20:07.693Z,17.50
2018-06-04T00:22:35.779Z,17.50
2018-06-04T00:25:03.943Z,17.50
2018-06-04T00:27:32.031Z,17.50
2018-06-04T00:30:00.139Z,17.50
2018-06-04T00:32:28.239Z,17.50
2018-06-04T00:34:56.314Z,17.50
2018-06-04T00:39:52.268Z,17.50
2018-06-04T00:42:20.342Z,17.50
2018-06-04T00:44:48.418Z,17.50
2018-06-04T00:47:16.526Z,17.60
2018-06-04T00:49:44.627Z,17.50
2018-06-04T00:52:12.735Z,17.50
2018-06-04T00:54:40.836Z,17.60
2018-06-04T00:57:08.927Z,17.60
2018-06-04T00:59:37.026Z,17.60
2018-06-04T01:02:05.467Z,17.60
2018-06-04T01:04:33.567Z,17.60
2018-06-04T01:07:01.812Z,17.70
2018-06-04T01:09:29.983Z,17.70
2018-06-04T01:11:58.054Z,17.70
2018-06-04T01:14:26.175Z,17.70
2018-06-04T01:16:54.262Z,17.70
2018-06-04T01:19:22.454Z,17.70
2018-06-04T01:21:50.547Z,17.70
2018-06-04T01:24:18.695Z,17.80
2018-06-04T01:26:46.788Z,17.80
2018-06-04T01:29:14.875Z,17.80
2018-06-04T01:31:42.953Z,17.70
2018-06-04T01:34:11.048Z,17.80
2018-06-04T01:36:39.134Z,17.80
2018-06-04T01:39:07.835Z,17.80
2018-06-04T01:41:36.059Z,17.80
2018-06-04T01:44:04.320Z,17.80
2018-06-04T01:46:32.413Z,17.80
2018-06-04T01:49:00.482Z,17.80
2018-06-04T01:51:28.663Z,17.80
2018-06-04T01:53:56.758Z,17.80
2018-06-04T01:56:24.833Z,17.70
2018-06-04T01:58:52.914Z,17.80
2018-06-04T02:01:21.009Z,17.70
2018-06-04T02:03:49.155Z,17.70
2018-06-04T02:06:17.243Z,17.70
2018-06-04T02:08:45.337Z,17.70
2018-06-04T02:11:13.428Z,17.70
2018-06-04T02:13:41.541Z,17.70
2018-06-04T02:16:09.661Z,17.70
2018-06-04T02:18:37.749Z,17.70
2018-06-04T02:21:05.883Z,17.70
2018-06-04T02:23:33.964Z,17.70
2018-06-04T02:26:02.056Z,17.70
2018-06-04T02:28:30.146Z,17.70
2018-06-04T02:30:58.264Z,17.60
2018-06-04T02:33:26.350Z,17.60
2018-06-04T02:35:54.439Z,17.60
2018-06-04T02:38:23.363Z,17.60
2018-06-04T02:40:51.456Z,17.60
2018-06-04T02:43:19.548Z,17.60
2018-06-04T02:48:15.616Z,17.50
2018-06-04T02:50:43.705Z,17.50
2018-06-04T02:53:11.768Z,17.50
2018-06-04T02:55:39.855Z,17.50
2018-06-04T02:58:07.919Z,17.50
2018-06-04T03:00:36.008Z,17.50
2018-06-04T03:03:04.079Z,17.50
2018-06-04T03:05:32.222Z,17.50
2018-06-04T03:08:00.396Z,17.50
2018-06-04T03:10:28.492Z,17.50
2018-06-04T03:12:56.600Z,17.50
2018-06-04T03:17:52.683Z,17.50
2018-06-04T03:20:20.763Z,17.50
2018-06-04T03:22:48.832Z,17.50
2018-06-04T03:25:17.001Z,17.50
2018-06-04T03:27:45.075Z,17.40
2018-06-04T03:30:13.221Z,17.40
2018-06-04T03:32:41.307Z,17.30
2018-06-04T03:35:09.390Z,17.40
2018-06-04T03:37:37.455Z,17.30
2018-06-04T03:40:05.715Z,17.30
2018-06-04T03:42:33.834Z,17.40
2018-06-04T03:45:01.942Z,17.40
2018-06-04T03:49:58.050Z,17.40
2018-06-04T03:52:26.122Z,17.40
2018-06-04T03:54:54.212Z,17.50
2018-06-04T03:57:22.301Z,17.50
2018-06-04T03:59:50.390Z,17.50
2018-06-04T04:04:46.354Z,17.50
2018-06-04T04:07:14.466Z,17.50
2018-06-04T04:09:42.575Z,17.50
2018-06-04T04:12:10.677Z,17.50
2018-06-04T04:14:38.766Z,17.50
2018-06-04T04:17:06.879Z,17.50
2018-06-04T04:22:02.959Z,17.50
2018-06-04T04:24:31.038Z,17.50
2018-06-04T04:26:59.202Z,17.60
2018-06-04T04:29:27.259Z,17.60
2018-06-04T04:31:55.335Z,17.60
2018-06-04T04:34:23.469Z,17.60
2018-06-04T04:36:51.531Z,17.60
2018-06-04T04:39:19.689Z,17.60
2018-06-04T04:41:47.781Z,17.60
2018-06-04T04:44:15.908Z,17.70
2018-06-04T04:46:44.024Z,17.70
2018-06-04T04:49:12.094Z,17.70
2018-06-04T04:51:40.240Z,17.70
2018-06-04T04:54:08.302Z,17.70
2018-06-04T04:56:36.420Z,17.70
2018-06-04T04:59:04.663Z,17.70
2018-06-04T05:01:32.796Z,17.80
2018-06-04T05:04:00.917Z,17.80
2018-06-04T05:06:29.051Z,17.80
2018-06-04T05:08:57.261Z,17.80
2018-06-04T05:11:25.222Z,17.80
2018-06-04T05:13:53.314Z,17.80
2018-06-04T05:16:21.383Z,17.80
2018-06-04T05:18:49.492Z,17.80
2018-06-04T05:21:17.636Z,17.80
2018-06-04T05:23:45.774Z,17.80
2018-06-04T05:26:13.846Z,17.80
2018-06-04T05:28:41.918Z,17.90
2018-06-04T05:37:56.133Z,17.90
2018-06-04T05:40:24.252Z,18.00
2018-06-04T05:42:52.347Z,17.90
2018-06-04T05:45:20.419Z,17.90
2018-06-04T05:47:48.603Z,18.00
2018-06-04T05:50:16.691Z,18.00
2018-06-04T05:52:44.824Z,18.00
2018-06-04T05:55:12.966Z,18.10
2018-06-04T05:57:41.064Z,18.10
2018-06-04T06:00:09.179Z,18.10
2018-06-04T06:02:37.242Z,18.10
2018-06-04T06:05:05.333Z,18.20
2018-06-04T06:07:33.437Z,18.20
2018-06-04T06:10:01.532Z,18.20
2018-06-04T06:12:29.616Z,18.20
2018-06-04T06:14:57.728Z,18.20
2018-06-04T06:17:25.820Z,18.30
2018-06-04T06:19:54.005Z,18.30
2018-06-04T06:22:22.120Z,18.40
2018-06-04T06:24:50.223Z,18.40
2018-06-04T06:27:18.334Z,18.50
2018-06-04T06:29:46.483Z,18.50
2018-06-04T06:32:14.547Z,18.50
2018-06-04T06:34:42.623Z,18.50
2018-06-04T06:37:10.708Z,18.50
2018-06-04T06:39:38.792Z,18.60
2018-06-04T06:42:06.903Z,18.60
2018-06-04T06:44:34.987Z,18.60
2018-06-04T06:47:03.148Z,18.60
2018-06-04T06:49:31.259Z,18.60
2018-06-04T06:51:59.368Z,18.50
2018-06-04T06:54:27.478Z,18.50
2018-06-04T06:56:55.650Z,18.50
2018-06-04T06:59:23.759Z,18.50
2018-06-04T07:01:51.844Z,18.50
2018-06-04T07:04:19.902Z,18.50
2018-06-04T07:06:48.011Z,18.50
2018-06-04T07:09:16.101Z,18.50
2018-06-04T07:11:44.207Z,18.60
2018-06-04T07:14:12.283Z,18.60
2018-06-04T07:16:40.355Z,18.70
2018-06-04T07:19:08.437Z,18.70
2018-06-04T07:21:36.658Z,18.70
2018-06-04T07:24:04.933Z,18.80
2018-06-04T07:26:33.008Z,18.80
2018-06-04T07:29:01.091Z,18.80
2018-06-04T07:31:29.179Z,18.80
2018-06-04T07:33:57.352Z,18.90
2018-06-04T07:36:25.497Z,18.90
2018-06-04T07:38:53.627Z,19.00
2018-06-04T07:41:21.980Z,19.10
2018-06-04T07:43:49.976Z,19.10
2018-06-04T07:46:18.098Z,19.20
2018-06-04T07:48:46.171Z,19.30
2018-06-04T07:51:14.259Z,19.30
2018-06-04T07:53:42.424Z,19.40
2018-06-04T07:56:10.495Z,19.50
2018-06-04T07:58:38.595Z,19.50
2018-06-04T08:01:06.691Z,19.60
2018-06-04T08:03:34.811Z,19.70
2018-06-04T08:06:03.035Z,19.80
2018-06-04T08:08:31.140Z,19.80
2018-06-04T08:10:59.332Z,19.80
2018-06-04T08:13:27.506Z,19.80
2018-06-04T08:15:55.668Z,19.80
2018-06-04T08:18:23.742Z,19.90
2018-06-04T08:20:52.018Z,19.90
2018-06-04T08:23:20.087Z,19.90
2018-06-04T08:25:48.165Z,20.00
2018-06-04T08:28:16.289Z,20.00
2018-06-04T08:30:44.345Z,19.90
2018-06-04T08:33:12.481Z,20.00
2018-06-04T08:35:40.557Z,20.00
2018-06-04T08:38:08.639Z,20.00
2018-06-04T08:40:36.743Z,19.90
2018-06-04T08:43:04.827Z,19.90
2018-06-04T08:45:32.979Z,19.90
2018-06-04T08:48:01.113Z,19.90
2018-06-04T08:50:29.289Z,20.00
2018-06-04T08:52:57.437Z,20.10
2018-06-04T08:55:25.495Z,20.10
2018-06-04T08:57:53.620Z,20.10
2018-06-04T09:00:21.699Z,20.10
2018-06-04T09:02:49.811Z,20.10
2018-06-04T09:05:17.971Z,20.10
2018-06-04T09:07:46.017Z,20.10
2018-06-04T09:10:14.079Z,20.10
2018-06-04T09:12:42.188Z,20.10
2018-06-04T09:15:10.367Z,20.20
2018-06-04T09:17:38.536Z,20.40
2018-06-04T09:20:06.626Z,20.40
2018-06-04T09:22:34.703Z,20.50
2018-06-04T09:25:02.824Z,20.60
2018-06-04T09:27:30.923Z,20.70
2018-06-04T09:29:59.007Z,20.80
2018-06-04T09:32:27.108Z,20.90
2018-06-04T09:34:55.207Z,20.90
2018-06-04T09:37:23.313Z,20.90
2018-06-04T09:39:51.795Z,20.80
2018-06-04T09:42:19.912Z,20.80
2018-06-04T09:44:47.995Z,20.90
2018-06-04T09:47:16.120Z,21.50
2018-06-04T09:49:45.122Z,21.10
2018-06-04T09:52:14.782Z,21.20
2018-06-04T09:54:42.843Z,21.30
2018-06-04T09:57:11.571Z,21.50
2018-06-04T09:59:39.655Z,21.60
2018-06-04T10:02:07.745Z,21.70
2018-06-04T10:04:35.824Z,21.80
2018-06-04T10:07:03.954Z,21.80
2018-06-04T10:09:32.073Z,21.80
2018-06-04T10:12:00.215Z,21.80
2018-06-04T10:14:28.314Z,21.80
2018-06-04T10:16:56.652Z,21.70
2018-06-04T10:19:24.756Z,21.70
2018-06-04T10:21:52.835Z,21.70
2018-06-04T10:24:21.013Z,21.80
2018-06-04T10:26:49.115Z,21.90
2018-06-04T10:29:17.207Z,22.00
2018-06-04T10:31:45.292Z,22.10
2018-06-04T10:34:13.387Z,22.20
2018-06-04T10:36:41.572Z,22.30
2018-06-04T10:39:09.765Z,22.40
2018-06-04T10:41:37.851Z,22.40
2018-06-04T10:44:06.102Z,22.50
2018-06-04T10:46:34.208Z,22.40
2018-06-04T10:49:02.333Z,22.50
2018-06-04T10:51:30.647Z,22.60
2018-06-04T10:53:58.732Z,22.70
2018-06-04T10:56:26.869Z,22.80
2018-06-04T10:58:54.988Z,22.90
2018-06-04T11:01:23.249Z,23.00
2018-06-04T11:03:51.631Z,23.40
2018-06-04T11:06:19.743Z,23.90
2018-06-04T11:08:47.993Z,24.10
2018-06-04T11:11:16.162Z,24.20
2018-06-04T11:13:44.342Z,24.00
2018-06-04T11:16:12.439Z,23.80
2018-06-04T11:18:41.180Z,23.80
2018-06-04T11:21:09.495Z,23.70
2018-06-04T11:23:37.618Z,23.50
2018-06-04T11:28:33.689Z,23.30
2018-06-04T11:31:01.761Z,23.50
2018-06-04T11:33:29.942Z,23.70
2018-06-04T11:35:58.068Z,23.90
2018-06-04T11:38:26.200Z,24.10
2018-06-04T11:40:54.305Z,24.30
2018-06-04T11:43:22.426Z,24.30
2018-06-04T11:45:50.499Z,24.50
2018-06-04T11:48:18.600Z,24.60
2018-06-04T11:50:46.712Z,24.80
2018-06-04T11:53:14.775Z,25.00
2018-06-04T11:55:42.961Z,24.90
2018-06-04T11:58:11.062Z,24.80
2018-06-04T12:00:39.186Z,24.80
2018-06-04T12:03:07.318Z,24.60
2018-06-04T12:05:35.407Z,24.50
2018-06-04T12:08:04.097Z,24.70
2018-06-04T12:10:32.198Z,24.80
2018-06-04T12:13:00.384Z,24.90
2018-06-04T12:15:28.462Z,25.20
2018-06-04T12:17:56.597Z,25.50
2018-06-04T12:20:24.731Z,25.70
2018-06-04T12:22:52.817Z,25.60
2018-06-04T12:25:20.951Z,25.30
2018-06-04T12:27:49.062Z,25.30
2018-06-04T12:30:17.251Z,25.30
2018-06-04T12:32:45.343Z,25.20
2018-06-04T12:35:13.441Z,25.40
2018-06-04T12:37:41.519Z,25.50
2018-06-04T12:40:09.611Z,25.60
2018-06-04T12:42:37.728Z,25.90
2018-06-04T12:45:05.821Z,25.90
2018-06-04T12:47:33.928Z,25.90
2018-06-04T12:50:02.246Z,26.20
2018-06-04T12:52:30.319Z,26.20
2018-06-04T12:54:58.510Z,26.10
2018-06-04T12:57:26.625Z,26.20
2018-06-04T12:59:54.806Z,26.20
2018-06-04T13:02:22.878Z,26.30
2018-06-04T13:04:51.034Z,26.20
2018-06-04T13:07:21.632Z,26.20
2018-06-04T13:11:19.351Z,26.20
2018-06-04T13:13:48.473Z,26.40
2018-06-04T13:16:16.594Z,26.60
2018-06-04T13:18:46.857Z,26.20
2018-06-04T13:21:22.988Z,26.20
2018-06-04T13:23:51.177Z,25.90
2018-06-04T13:26:19.335Z,26.00
2018-06-04T13:28:47.530Z,26.30
2018-06-04T13:31:15.916Z,26.70
2018-06-04T13:33:44.031Z,27.00
2018-06-04T13:36:12.360Z,27.00
2018-06-04T13:38:40.822Z,27.00
2018-06-04T13:41:08.946Z,27.00
2018-06-04T13:43:37.487Z,26.70
2018-06-04T13:46:06.147Z,26.40
2018-06-04T13:48:34.207Z,26.40
2018-06-04T13:51:02.495Z,26.60
2018-06-04T13:53:30.694Z,26.60
2018-06-04T13:55:58.815Z,26.30
2018-06-04T13:58:26.978Z,26.20
2018-06-04T14:00:55.058Z,26.20
2018-06-04T14:03:23.154Z,26.30
2018-06-04T14:05:51.256Z,26.40
2018-06-04T14:08:19.342Z,26.60
2018-06-04T14:10:47.531Z,26.40
2018-06-04T14:13:15.944Z,26.20
2018-06-04T14:18:12.045Z,26.80
2018-06-04T14:20:40.118Z,27.00
2018-06-04T14:23:08.453Z,27.30
2018-06-04T14:25:36.644Z,27.40
2018-06-04T14:28:04.927Z,27.70
2018-06-04T14:30:33.038Z,28.10
2018-06-04T14:33:01.199Z,28.10
2018-06-04T14:35:29.286Z,28.10
2018-06-04T14:37:57.370Z,28.20
2018-06-04T14:40:25.507Z,28.30
2018-06-04T14:42:53.634Z,28.50
2018-06-04T14:45:21.849Z,28.70
2018-06-04T14:47:49.934Z,28.80
2018-06-04T14:50:18.004Z,28.70
2018-06-04T14:52:46.076Z,28.70
2018-06-04T14:55:14.209Z,28.40
2018-06-04T14:57:42.303Z,28.50
2018-06-04T15:00:10.415Z,28.50
2018-06-04T15:02:38.514Z,28.60
2018-06-04T15:05:06.595Z,28.60
2018-06-04T15:07:34.711Z,28.70
2018-06-04T15:10:02.899Z,28.90
2018-06-04T15:12:31.023Z,29.10
2018-06-04T15:14:59.078Z,29.40
2018-06-04T15:17:27.180Z,29.20
2018-06-04T15:19:55.278Z,29.10
2018-06-04T15:22:23.426Z,28.70
2018-06-04T15:24:51.542Z,28.20
2018-06-04T15:29:47.575Z,27.40
2018-06-04T15:32:15.675Z,27.10
2018-06-04T15:34:43.874Z,26.90
2018-06-04T15:37:12.074Z,26.70
2018-06-04T15:39:40.220Z,27.10
2018-06-04T15:42:08.406Z,27.50
2018-06-04T15:44:37.062Z,27.80
2018-06-04T15:47:05.218Z,27.80
2018-06-04T15:49:33.409Z,28.30
2018-06-04T15:52:01.619Z,28.80
2018-06-04T15:54:29.678Z,29.10
2018-06-04T15:56:57.834Z,29.50
2018-06-04T15:59:26.020Z,30.00
2018-06-04T16:01:54.167Z,30.00
2018-06-04T16:04:22.777Z,29.90
2018-06-04T16:06:50.851Z,29.80
2018-06-04T16:09:18.947Z,29.90
2018-06-04T16:11:47.046Z,30.30
2018-06-04T16:14:15.134Z,30.60
2018-06-04T16:16:43.420Z,30.90
2018-06-04T16:19:11.749Z,31.10
2018-06-04T16:21:40.151Z,31.10
2018-06-04T16:24:08.300Z,30.70
2018-06-04T16:26:36.655Z,30.50
2018-06-04T16:29:04.758Z,30.40
2018-06-04T16:31:32.975Z,30.50
2018-06-04T16:34:01.856Z,30.70
2018-06-04T16:36:29.988Z,30.90
2018-06-04T16:38:58.115Z,30.90
2018-06-04T16:41:26.251Z,30.90
2018-06-04T16:43:54.326Z,30.70
2018-06-04T16:48:50.386Z,30.50
2018-06-04T16:51:18.555Z,30.20
2018-06-04T16:53:46.606Z,30.10
2018-06-04T16:56:14.845Z,29.90
2018-06-04T16:58:42.930Z,29.60
2018-06-04T17:01:11.051Z,28.50
2018-06-04T17:03:39.162Z,27.40
2018-06-04T17:06:07.251Z,26.40
2018-06-04T17:08:35.867Z,25.50
2018-06-04T17:11:04.139Z,24.80
2018-06-04T17:13:32.277Z,24.30
2018-06-04T17:16:00.394Z,24.00
2018-06-04T17:18:28.502Z,23.60
2018-06-04T17:20:56.622Z,23.40
2018-06-04T17:23:24.794Z,23.20
2018-06-04T17:25:53.653Z,23.00
2018-06-04T17:28:22.374Z,22.70
2018-06-04T17:30:50.586Z,22.50
2018-06-04T17:33:18.674Z,22.30
2018-06-04T17:35:46.767Z,22.30
2018-06-04T17:38:14.959Z,22.10
2018-06-04T17:40:43.442Z,21.90
2018-06-04T17:43:11.599Z,21.80
2018-06-04T17:45:39.700Z,21.60
2018-06-04T17:48:07.827Z,21.30
2018-06-04T17:50:35.961Z,21.20
2018-06-04T17:53:04.054Z,21.10
2018-06-04T17:58:00.807Z,20.90
2018-06-04T18:00:29.238Z,20.80
2018-06-04T18:02:57.452Z,20.80
2018-06-04T18:05:25.636Z,20.70
2018-06-04T18:07:53.773Z,20.70
2018-06-04T18:10:21.835Z,20.80
2018-06-04T18:12:50.007Z,21.00
2018-06-04T18:15:18.051Z,21.00
2018-06-04T18:17:46.178Z,21.00
2018-06-04T18:20:14.275Z,20.90
2018-06-04T18:22:42.363Z,21.00
2018-06-04T18:25:10.538Z,20.90
2018-06-04T18:27:38.671Z,20.90
2018-06-04T18:30:06.798Z,20.80
2018-06-04T18:32:34.905Z,20.70
2018-06-04T18:35:03.019Z,20.60
2018-06-04T18:37:31.131Z,20.40
2018-06-04T18:39:59.210Z,20.30
2018-06-04T18:42:27.330Z,20.20
2018-06-04T18:44:55.403Z,20.20
2018-06-04T18:47:23.539Z,20.20
2018-06-04T18:49:51.615Z,20.20
2018-06-04T18:52:19.739Z,20.20
2018-06-04T18:54:47.819Z,20.20
2018-06-04T18:57:16.661Z,20.20
2018-06-04T18:59:46.568Z,20.20
2018-06-04T19:02:14.886Z,20.20
2018-06-04T19:04:43.240Z,20.20
2018-06-04T19:07:11.313Z,20.10
2018-06-04T19:09:39.490Z,20.00
2018-06-04T19:12:07.572Z,19.90
2018-06-04T19:14:35.757Z,19.80
2018-06-04T19:17:04.192Z,19.80
2018-06-04T19:19:32.271Z,19.60
2018-06-04T19:22:00.332Z,19.60
2018-06-04T19:24:28.448Z,19.60
2018-06-04T19:26:56.585Z,19.60
2018-06-04T19:31:52.577Z,19.40
2018-06-04T19:34:20.631Z,19.40
2018-06-04T19:36:48.749Z,19.30
2018-06-04T19:39:17.127Z,19.20
2018-06-04T19:41:45.286Z,19.10
2018-06-04T19:44:13.440Z,19.10
2018-06-04T19:46:41.530Z,19.00
2018-06-04T19:49:10.080Z,18.90
2018-06-04T19:51:38.503Z,18.90
2018-06-04T19:54:06.585Z,18.90
2018-06-04T19:56:35.095Z,18.80
2018-06-04T19:59:03.189Z,18.80
2018-06-04T20:01:31.275Z,18.90
2018-06-04T20:03:59.710Z,18.90
2018-06-04T20:06:27.918Z,18.90
2018-06-04T20:08:56.098Z,18.90
2018-06-04T20:11:24.206Z,18.90
2018-06-04T20:13:52.357Z,18.90
2018-06-04T20:16:20.420Z,18.90
2018-06-04T20:18:48.486Z,18.90
2018-06-04T20:21:16.694Z,18.90
2018-06-04T20:23:44.758Z,18.80
2018-06-04T20:26:12.963Z,18.80
2018-06-04T20:28:41.083Z,18.70
2018-06-04T20:31:09.256Z,18.70
2018-06-04T20:33:37.327Z,18.70
2018-06-04T20:36:05.419Z,18.70
2018-06-04T20:41:01.357Z,18.70
2018-06-04T20:43:29.464Z,18.60
2018-06-04T20:45:57.665Z,18.60
2018-06-04T20:48:25.879Z,18.60
2018-06-04T20:50:53.964Z,18.60
2018-06-04T20:55:49.974Z,18.60
2018-06-04T20:58:18.119Z,18.60
2018-06-04T21:00:46.204Z,18.60
2018-06-04T21:03:14.282Z,18.60
2018-06-04T21:05:42.519Z,18.60
2018-06-04T21:08:10.592Z,18.60
2018-06-04T21:10:38.814Z,18.70
2018-06-04T21:13:07.086Z,18.70
2018-06-04T21:15:35.200Z,18.70
2018-06-04T21:18:03.391Z,18.60
2018-06-04T21:20:31.605Z,18.60
2018-06-04T21:22:59.695Z,18.60
2018-06-04T21:25:29.915Z,18.70
2018-06-04T21:27:59.806Z,18.70
2018-06-04T21:30:28.322Z,18.60
2018-06-04T21:32:56.506Z,18.60
2018-06-04T21:35:24.640Z,18.50
2018-06-04T21:37:52.774Z,18.50
2018-06-04T21:40:20.868Z,18.50
2018-06-04T21:42:48.932Z,18.50
2018-06-04T21:45:17.111Z,18.50
2018-06-04T21:47:45.243Z,18.40
2018-06-04T21:52:41.422Z,18.30
2018-06-04T21:55:10.237Z,18.20
2018-06-04T21:57:38.514Z,18.20
2018-06-04T22:00:08.963Z,18.20
2018-06-04T22:02:38.007Z,18.20
2018-06-04T22:05:06.355Z,18.10
2018-06-04T22:07:34.476Z,18.10
2018-06-04T22:10:02.563Z,18.10
2018-06-04T22:12:30.780Z,18.00
2018-06-04T22:14:58.838Z,17.90
2018-06-04T22:17:27.019Z,17.80
2018-06-04T22:19:55.075Z,17.90
2018-06-04T22:22:23.292Z,17.90
2018-06-04T22:24:51.417Z,17.90
2018-06-04T22:27:19.504Z,17.90
2018-06-04T22:34:43.398Z,17.80
2018-06-04T22:37:11.500Z,17.80
2018-06-04T22:39:39.610Z,17.80
2018-06-04T22:42:07.718Z,17.80
2018-06-04T22:44:35.810Z,17.70
2018-06-04T22:47:03.916Z,17.70
2018-06-04T22:49:32.106Z,17.60
2018-06-04T22:52:00.194Z,17.60
2018-06-04T22:54:28.330Z,17.50
2018-06-04T22:56:56.423Z,17.50
2018-06-04T22:59:24.507Z,17.50
2018-06-04T23:01:52.582Z,17.50
2018-06-04T23:04:20.662Z,17.50
2018-06-04T23:06:48.734Z,17.60
2018-06-04T23:09:16.818Z,17.60
2018-06-04T23:11:44.942Z,17.60
2018-06-04T23:14:13.040Z,17.60
2018-06-04T23:16:41.159Z,17.50
2018-06-04T23:21:37.130Z,17.50
2018-06-04T23:24:05.238Z,17.40
2018-06-04T23:26:33.366Z,17.40
2018-06-04T23:29:01.471Z,17.40
2018-06-04T23:31:29.570Z,17.40
2018-06-04T23:33:57.674Z,17.30
2018-06-04T23:36:25.760Z,17.30
2018-06-04T23:38:53.842Z,17.30
2018-06-04T23:41:21.995Z,17.30
2018-06-04T23:43:50.693Z,17.30
2018-06-04T23:46:18.855Z,17.30
2018-06-04T23:48:46.962Z,17.20
2018-06-04T23:51:15.038Z,17.20
2018-06-04T23:53:43.130Z,17.20
2018-06-04T23:56:11.213Z,17.20
2018-06-04T23:58:39.334Z,17.20
